createdAt,value
2022-10-18T00:01:20.229Z,17.77
2022-10-18T00:03:22.384Z,17.15
2022-10-18T00:05:23.823Z,16.90
2022-10-18T00:07:25.237Z,17.20
2022-10-18T00:09:27.676Z,16.92
2022-10-18T00:11:29.192Z,16.33
2022-10-18T00:13:30.745Z,16.30
2022-10-18T00:15:32.171Z,17.17
2022-10-18T00:17:37.664Z,17.70
2022-10-18T00:19:39.141Z,16.58
2022-10-18T00:21:40.634Z,16.85
2022-10-18T00:23:43.267Z,17.65
2022-10-18T00:25:44.702Z,17.80
2022-10-18T00:27:46.129Z,16.92
2022-10-18T00:29:47.572Z,17.30
2022-10-18T00:31:49.004Z,17.05
2022-10-18T00:33:55.248Z,16.85
2022-10-18T00:36:00.668Z,17.02
2022-10-18T00:38:02.106Z,16.63
2022-10-18T00:40:04.854Z,17.67
2022-10-18T00:42:06.285Z,16.88
2022-10-18T00:44:27.660Z,16.23
2022-10-18T00:46:32.273Z,15.88
2022-10-18T00:48:33.728Z,16.10
2022-10-18T00:50:36.251Z,16.65
2022-10-18T00:52:45.764Z,25.73
2022-10-18T00:54:49.707Z,21.38
2022-10-18T00:56:51.280Z,21.23
2022-10-18T00:58:52.856Z,19.23
2022-10-18T01:00:54.355Z,17.05
2022-10-18T01:02:58.210Z,17.58
2022-10-18T01:04:59.644Z,19.60
2022-10-18T01:07:28.922Z,18.77
2022-10-18T01:09:59.219Z,18.33
2022-10-18T01:12:06.584Z,18.33
2022-10-18T01:14:21.342Z,18.00
2022-10-18T01:16:37.958Z,17.20
2022-10-18T01:19:01.469Z,17.42
2022-10-18T01:21:08.916Z,16.17
2022-10-18T01:23:42.749Z,16.10
2022-10-18T01:25:59.263Z,16.10
2022-10-18T01:28:38.495Z,17.58
2022-10-18T01:30:42.986Z,17.88
2022-10-18T01:32:48.981Z,17.33
2022-10-18T01:34:55.902Z,15.32
2022-10-18T01:36:58.682Z,16.25
2022-10-18T01:39:05.807Z,16.45
2022-10-18T01:41:13.233Z,17.10
2022-10-18T01:43:19.860Z,17.42
2022-10-18T01:45:24.064Z,17.15
2022-10-18T01:47:26.946Z,16.42
2022-10-18T01:49:28.404Z,17.77
2022-10-18T01:51:31.701Z,16.90
2022-10-18T01:53:34.741Z,16.88
2022-10-18T01:55:45.613Z,15.85
2022-10-18T01:58:06.102Z,16.85
2022-10-18T02:00:07.546Z,16.90
2022-10-18T02:02:41.718Z,14.68
2022-10-18T02:04:59.091Z,15.38
2022-10-18T02:07:21.419Z,16.83
2022-10-18T02:09:33.876Z,16.13
2022-10-18T02:11:37.939Z,15.73
2022-10-18T02:13:47.841Z,16.45
2022-10-18T02:15:56.371Z,15.38
2022-10-18T02:17:57.800Z,17.30
2022-10-18T02:20:05.516Z,17.15
2022-10-18T02:22:10.541Z,15.93
2022-10-18T02:24:14.523Z,14.70
2022-10-18T02:26:16.505Z,16.00
2022-10-18T02:28:18.199Z,16.73
2022-10-18T02:30:24.587Z,17.33
2022-10-18T02:32:34.779Z,15.90
2022-10-18T02:34:41.350Z,17.13
2022-10-18T02:36:47.360Z,16.75
2022-10-18T02:38:56.779Z,16.70
2022-10-18T02:40:59.468Z,16.45
2022-10-18T02:43:00.917Z,16.77
2022-10-18T02:45:03.320Z,16.08
2022-10-18T02:47:06.476Z,16.88
2022-10-18T02:49:07.927Z,16.55
2022-10-18T02:51:09.371Z,17.15
2022-10-18T02:53:10.800Z,16.63
2022-10-18T02:55:12.234Z,18.17
2022-10-18T02:57:13.666Z,19.25
2022-10-18T02:59:15.245Z,18.08
2022-10-18T03:01:16.754Z,19.77
2022-10-18T03:03:18.251Z,21.98
2022-10-18T03:05:19.677Z,21.73
2022-10-18T03:07:21.211Z,22.20
2022-10-18T03:09:22.705Z,21.20
2022-10-18T03:11:24.200Z,21.88
2022-10-18T03:13:25.736Z,25.50
2022-10-18T03:15:27.307Z,22.90
2022-10-18T03:17:28.927Z,25.23
2022-10-18T03:19:30.542Z,26.30
2022-10-18T03:21:32.035Z,28.42
2022-10-18T03:23:33.621Z,27.33
2022-10-18T03:25:35.099Z,27.80
2022-10-18T03:27:36.523Z,28.27
2022-10-18T03:29:38.019Z,26.85
2022-10-18T03:31:39.465Z,30.88
2022-10-18T03:33:40.906Z,28.58
2022-10-18T03:35:42.382Z,29.52
2022-10-18T03:37:43.826Z,27.35
2022-10-18T03:39:45.269Z,26.95
2022-10-18T03:41:46.766Z,28.00
2022-10-18T03:43:48.250Z,26.98
2022-10-18T03:45:50.062Z,27.45
2022-10-18T03:47:51.548Z,28.30
2022-10-18T03:49:56.234Z,27.73
2022-10-18T03:51:58.922Z,30.80
2022-10-18T03:54:00.388Z,29.40
2022-10-18T03:56:01.913Z,29.20
2022-10-18T03:58:03.761Z,28.80
2022-10-18T04:00:05.809Z,26.50
2022-10-18T04:02:07.233Z,27.05
2022-10-18T04:04:08.811Z,27.27
2022-10-18T04:06:10.347Z,26.98
2022-10-18T04:08:12.483Z,26.73
2022-10-18T04:10:14.015Z,29.77
2022-10-18T04:12:15.539Z,28.83
2022-10-18T04:14:17.136Z,27.88
2022-10-18T04:16:18.630Z,26.77
2022-10-18T04:18:20.058Z,27.13
2022-10-18T04:20:21.629Z,28.05
2022-10-18T04:22:23.100Z,31.08
2022-10-18T04:24:24.623Z,30.05
2022-10-18T04:26:26.131Z,28.63
2022-10-18T04:28:27.606Z,31.17
2022-10-18T04:30:29.061Z,29.35
2022-10-18T04:32:30.491Z,28.55
2022-10-18T04:34:32.017Z,27.90
2022-10-18T04:36:33.469Z,28.75
2022-10-18T04:38:34.996Z,28.42
2022-10-18T04:40:37.527Z,29.58
2022-10-18T04:42:38.996Z,27.08
2022-10-18T04:44:40.476Z,27.17
2022-10-18T04:46:41.998Z,27.45
2022-10-18T04:48:43.422Z,26.05
2022-10-18T04:50:48.504Z,26.63
2022-10-18T04:54:56.398Z,27.50
2022-10-18T04:57:00.508Z,26.42
2022-10-18T04:59:01.986Z,26.48
2022-10-18T05:01:07.572Z,26.52
2022-10-18T05:03:12.264Z,26.60
2022-10-18T05:05:14.304Z,26.25
2022-10-18T05:07:15.956Z,26.15
2022-10-18T05:09:17.516Z,24.23
2022-10-18T05:11:19.177Z,25.50
2022-10-18T05:13:20.595Z,25.67
2022-10-18T05:15:22.092Z,24.67
2022-10-18T05:17:23.564Z,23.58
2022-10-18T05:19:25.070Z,26.08
2022-10-18T05:21:26.507Z,24.92
2022-10-18T05:23:27.991Z,23.67
2022-10-18T05:25:29.457Z,25.30
2022-10-18T05:27:30.975Z,23.55
2022-10-18T05:29:32.395Z,23.90
2022-10-18T05:31:34.420Z,22.33
2022-10-18T05:33:36.101Z,23.00
2022-10-18T05:35:37.709Z,23.08
2022-10-18T05:37:39.153Z,22.98
2022-10-18T05:39:40.608Z,21.70
2022-10-18T05:41:42.319Z,21.15
2022-10-18T05:43:43.967Z,22.55
2022-10-18T05:45:50.342Z,22.08
2022-10-18T05:47:51.936Z,22.75
2022-10-18T05:49:53.457Z,22.83
2022-10-18T05:51:54.988Z,23.58
2022-10-18T05:53:56.432Z,23.10
2022-10-18T05:56:01.780Z,22.90
2022-10-18T05:58:04.194Z,23.60
2022-10-18T06:00:06.199Z,22.95
2022-10-18T06:02:09.996Z,22.17
2022-10-18T06:04:11.805Z,22.27
2022-10-18T06:06:14.439Z,18.92
2022-10-18T06:08:15.949Z,19.95
2022-10-18T06:10:17.434Z,20.27
2022-10-18T06:12:18.895Z,20.85
2022-10-18T06:14:20.387Z,19.38
2022-10-18T06:16:22.649Z,20.23
2022-10-18T06:18:24.161Z,21.60
2022-10-18T06:20:25.610Z,20.02
2022-10-18T06:22:27.110Z,19.80
2022-10-18T06:24:28.594Z,21.25
2022-10-18T06:26:30.203Z,21.13
2022-10-18T06:28:33.966Z,20.75
2022-10-18T06:30:37.006Z,22.40
2022-10-18T06:32:38.445Z,20.70
2022-10-18T06:34:39.889Z,19.70
2022-10-18T06:36:41.335Z,19.65
2022-10-18T06:38:43.292Z,20.83
2022-10-18T06:40:47.833Z,19.83
2022-10-18T06:42:59.957Z,20.48
2022-10-18T06:45:03.246Z,18.60
2022-10-18T06:47:04.711Z,19.20
2022-10-18T06:49:06.214Z,19.10
2022-10-18T06:51:08.689Z,17.10
2022-10-18T06:53:10.135Z,18.50
2022-10-18T06:55:11.600Z,18.73
2022-10-18T06:57:13.037Z,17.63
2022-10-18T06:59:14.866Z,17.52
2022-10-18T07:01:19.532Z,17.85
2022-10-18T07:03:21.864Z,17.13
2022-10-18T07:05:23.365Z,16.63
2022-10-18T07:07:24.888Z,16.58
2022-10-18T07:09:26.450Z,16.33
2022-10-18T07:11:27.962Z,16.38
2022-10-18T07:13:32.744Z,16.33
2022-10-18T07:15:38.373Z,16.17
2022-10-18T07:17:40.005Z,16.35
2022-10-18T07:19:41.444Z,17.92
2022-10-18T07:21:42.888Z,16.13
2022-10-18T07:23:48.477Z,16.63
2022-10-18T07:25:50.697Z,15.50
2022-10-18T07:27:52.841Z,13.65
2022-10-18T07:29:54.286Z,13.57
2022-10-18T07:31:55.730Z,13.85
2022-10-18T07:33:57.488Z,13.43
2022-10-18T07:36:03.729Z,13.10
2022-10-18T07:38:05.165Z,12.55
2022-10-18T07:40:07.229Z,11.50
2022-10-18T07:42:08.641Z,12.20
2022-10-18T07:44:10.272Z,11.85
2022-10-18T07:46:12.429Z,12.65
2022-10-18T07:48:13.867Z,13.43
2022-10-18T07:50:15.424Z,13.05
2022-10-18T07:52:16.913Z,12.75
2022-10-18T07:54:18.353Z,12.38
2022-10-18T07:56:21.703Z,12.13
2022-10-18T07:58:23.155Z,14.50
2022-10-18T08:00:24.631Z,12.73
2022-10-18T08:02:26.065Z,12.35
2022-10-18T08:04:27.551Z,13.10
2022-10-18T08:06:28.958Z,11.93
2022-10-18T08:08:30.795Z,11.52
2022-10-18T08:10:32.256Z,12.27
2022-10-18T08:12:33.683Z,12.60
2022-10-18T08:14:35.232Z,11.88
2022-10-18T08:16:36.672Z,12.93
2022-10-18T08:18:38.344Z,12.00
2022-10-18T08:20:44.500Z,12.68
2022-10-18T08:22:45.957Z,13.15
2022-10-18T08:24:47.665Z,11.90
2022-10-18T08:26:50.003Z,12.90
2022-10-18T08:29:10.418Z,12.32
2022-10-18T08:31:17.387Z,12.38
2022-10-18T08:33:18.838Z,12.88
2022-10-18T08:35:20.531Z,13.65
2022-10-18T08:37:22.051Z,13.65
2022-10-18T08:39:23.660Z,13.70
2022-10-18T08:41:37.262Z,14.05
2022-10-18T08:44:04.693Z,13.77
2022-10-18T08:46:12.308Z,14.48
2022-10-18T08:48:21.939Z,13.43
2022-10-18T08:50:36.858Z,14.50
2022-10-18T08:53:05.963Z,14.43
2022-10-18T08:55:37.796Z,14.32
2022-10-18T08:57:39.261Z,13.77
2022-10-18T08:59:41.793Z,12.57
2022-10-18T09:02:05.065Z,12.32
2022-10-18T09:04:26.657Z,14.18
2022-10-18T09:07:09.411Z,13.77
2022-10-18T09:09:35.210Z,13.10
2022-10-18T09:11:44.635Z,13.80
2022-10-18T09:14:03.256Z,13.10
2022-10-18T09:16:08.277Z,13.40
2022-10-18T09:18:27.895Z,13.65
2022-10-18T09:20:39.557Z,12.35
2022-10-18T09:22:55.199Z,10.98
2022-10-18T09:25:09.843Z,12.13
2022-10-18T09:27:18.961Z,11.32
2022-10-18T09:29:47.566Z,10.38
2022-10-18T09:32:01.230Z,10.00
2022-10-18T09:34:10.988Z,9.52
2022-10-18T09:36:30.566Z,9.50
2022-10-18T09:38:49.542Z,11.15
2022-10-18T09:40:56.483Z,9.02
2022-10-18T09:43:24.446Z,9.65
2022-10-18T09:45:31.129Z,9.73
2022-10-18T09:47:38.579Z,9.55
2022-10-18T09:49:51.008Z,8.68
2022-10-18T09:51:54.271Z,8.75
2022-10-18T09:54:26.981Z,8.05
2022-10-18T09:56:39.335Z,8.55
2022-10-18T09:58:48.341Z,6.90
2022-10-18T10:00:52.625Z,7.20
2022-10-18T10:02:54.884Z,6.65
2022-10-18T10:04:56.954Z,7.45
2022-10-18T10:07:01.355Z,6.65
2022-10-18T10:09:16.757Z,8.65
2022-10-18T10:11:29.624Z,7.60
2022-10-18T10:13:32.189Z,6.45
2022-10-18T10:15:38.112Z,7.85
2022-10-18T10:17:40.991Z,6.15
2022-10-18T10:20:00.494Z,7.57
2022-10-18T10:22:37.182Z,5.93
2022-10-18T10:24:50.688Z,5.53
2022-10-18T10:26:59.876Z,6.40
2022-10-18T10:29:01.648Z,6.78
2022-10-18T10:31:24.628Z,6.43
2022-10-18T10:33:37.704Z,6.00
2022-10-18T10:35:56.329Z,6.03
2022-10-18T10:37:57.817Z,4.95
2022-10-18T10:40:23.089Z,4.95
2022-10-18T10:42:26.798Z,4.72
2022-10-18T10:44:32.141Z,4.85
2022-10-18T10:46:36.460Z,4.47
2022-10-18T10:49:04.119Z,7.10
2022-10-18T10:51:18.346Z,7.25
2022-10-18T10:53:32.453Z,7.57
2022-10-18T10:55:35.793Z,7.68
2022-10-18T10:57:38.293Z,7.10
2022-10-18T10:59:55.090Z,6.30
2022-10-18T11:02:15.271Z,6.22
2022-10-18T11:04:30.764Z,5.40
2022-10-18T11:06:55.277Z,5.03
2022-10-18T11:09:01.563Z,4.45
2022-10-18T11:11:19.315Z,4.00
2022-10-18T11:14:13.249Z,3.55
2022-10-18T11:16:29.283Z,4.18
2022-10-18T11:18:35.259Z,3.60
2022-10-18T11:21:02.844Z,3.97
2022-10-18T11:23:11.738Z,3.67
2022-10-18T11:25:15.941Z,2.95
2022-10-18T11:27:27.456Z,2.25
2022-10-18T11:29:42.307Z,2.10
2022-10-18T11:32:18.970Z,2.38
2022-10-18T11:34:23.106Z,3.00
2022-10-18T11:36:36.837Z,2.58
2022-10-18T11:38:56.097Z,2.70
2022-10-18T11:41:34.763Z,2.38
2022-10-18T11:44:00.990Z,2.53
2022-10-18T11:46:11.652Z,2.00
2022-10-18T11:48:45.261Z,2.40
2022-10-18T11:51:05.704Z,2.40
2022-10-18T11:53:25.600Z,2.60
2022-10-18T11:55:52.462Z,2.63
2022-10-18T11:58:06.090Z,2.78
2022-10-18T12:00:33.936Z,2.08
2022-10-18T12:02:44.602Z,1.90
2022-10-18T12:04:59.816Z,2.50
2022-10-18T12:07:21.202Z,2.85
2022-10-18T12:09:32.519Z,2.17
2022-10-18T12:11:46.922Z,2.35
2022-10-18T12:14:01.220Z,2.42
2022-10-18T12:16:04.967Z,2.58
2022-10-18T12:18:14.844Z,2.88
2022-10-18T12:20:22.984Z,3.08
2022-10-18T12:22:32.731Z,1.92
2022-10-18T12:24:35.735Z,2.58
2022-10-18T12:26:37.878Z,2.28
2022-10-18T12:28:56.660Z,2.17
2022-10-18T12:31:18.109Z,2.10
2022-10-18T12:33:29.023Z,2.05
2022-10-18T12:35:42.677Z,2.10
2022-10-18T12:37:50.391Z,1.67
2022-10-18T12:40:38.806Z,2.17
2022-10-18T12:42:43.941Z,1.88
2022-10-18T12:44:46.458Z,2.67
2022-10-18T12:46:56.289Z,1.70
2022-10-18T12:49:04.668Z,2.13
2022-10-18T12:51:16.840Z,2.28
2022-10-18T12:53:27.132Z,1.75
2022-10-18T12:55:33.361Z,1.50
2022-10-18T12:57:53.290Z,1.55
2022-10-18T12:59:54.839Z,1.65
2022-10-18T13:01:56.282Z,1.70
2022-10-18T13:03:59.091Z,3.08
2022-10-18T13:06:04.220Z,1.60
2022-10-18T13:08:38.113Z,1.50
2022-10-18T13:10:40.488Z,1.45
2022-10-18T13:13:39.130Z,1.92
2022-10-18T13:15:47.255Z,1.70
2022-10-18T13:17:55.865Z,1.63
2022-10-18T13:22:37.534Z,1.60
2022-10-18T13:25:05.586Z,1.63
2022-10-18T13:27:37.492Z,1.40
2022-10-18T13:30:12.307Z,1.67
2022-10-18T13:32:38.005Z,1.30
2022-10-18T13:34:39.484Z,2.38
2022-10-18T13:36:42.181Z,1.40
2022-10-18T13:38:57.530Z,1.00
2022-10-18T13:41:06.087Z,1.30
2022-10-18T13:45:41.119Z,2.70
2022-10-18T13:47:42.769Z,1.45
2022-10-18T13:49:49.830Z,1.55
2022-10-18T13:52:19.231Z,1.48
2022-10-18T13:54:44.980Z,1.80
2022-10-18T13:56:56.840Z,1.20
2022-10-18T13:59:14.719Z,1.20
2022-10-18T14:01:40.377Z,1.17
2022-10-18T14:04:02.479Z,1.30
2022-10-18T14:06:06.622Z,1.08
2022-10-18T14:08:16.866Z,1.42
2022-10-18T14:10:43.417Z,2.00
2022-10-18T14:12:54.609Z,1.35
2022-10-18T14:15:08.051Z,1.10
2022-10-18T14:17:28.223Z,1.52
2022-10-18T14:19:39.326Z,1.23
2022-10-18T14:21:48.251Z,1.40
2022-10-18T14:23:50.688Z,1.23
2022-10-18T14:26:05.603Z,1.88
2022-10-18T14:28:15.706Z,1.20
2022-10-18T14:30:20.387Z,1.17
2022-10-18T14:32:28.488Z,1.42
2022-10-18T14:34:29.979Z,1.42
2022-10-18T14:36:40.904Z,1.10
2022-10-18T14:38:57.536Z,1.48
2022-10-18T14:41:15.009Z,1.58
2022-10-18T14:43:20.278Z,1.55
2022-10-18T14:45:40.751Z,1.40
2022-10-18T14:47:45.448Z,1.52
2022-10-18T14:49:47.646Z,1.40
2022-10-18T14:51:51.809Z,1.58
2022-10-18T14:53:53.643Z,1.20
2022-10-18T14:55:57.732Z,1.50
2022-10-18T14:57:59.748Z,1.52
2022-10-18T15:00:05.286Z,1.52
2022-10-18T15:02:25.314Z,1.42
2022-10-18T15:04:33.129Z,1.30
2022-10-18T15:06:34.616Z,1.52
2022-10-18T15:08:40.103Z,1.52
2022-10-18T15:10:41.693Z,1.30
2022-10-18T15:13:08.060Z,1.42
2022-10-18T15:15:13.935Z,2.00
2022-10-18T15:17:35.647Z,1.38
2022-10-18T15:19:42.823Z,1.80
2022-10-18T15:24:34.808Z,1.77
2022-10-18T15:26:36.372Z,1.50
2022-10-18T15:28:50.100Z,1.30
2022-10-18T15:30:51.762Z,2.15
2022-10-18T15:33:01.300Z,1.52
2022-10-18T15:35:10.039Z,1.88
2022-10-18T15:37:18.996Z,1.58
2022-10-18T15:39:23.578Z,1.70
2022-10-18T15:41:46.798Z,1.23
2022-10-18T15:43:48.280Z,1.40
2022-10-18T15:45:57.687Z,1.52
2022-10-18T15:48:10.593Z,1.52
2022-10-18T15:50:35.730Z,1.35
2022-10-18T15:52:42.465Z,1.33
2022-10-18T15:54:43.942Z,1.58
2022-10-18T15:56:45.705Z,1.40
2022-10-18T15:58:48.837Z,1.83
2022-10-18T16:00:52.092Z,1.98
2022-10-18T16:02:53.571Z,2.00
2022-10-18T16:04:55.040Z,1.27
2022-10-18T16:06:57.934Z,1.92
2022-10-18T16:08:59.349Z,1.70
2022-10-18T16:11:00.845Z,2.47
2022-10-18T16:13:02.386Z,1.85
2022-10-18T16:15:03.991Z,1.92
2022-10-18T16:17:07.244Z,1.73
2022-10-18T16:19:13.440Z,1.50
2022-10-18T16:21:25.789Z,1.65
2022-10-18T16:23:28.750Z,1.70
2022-10-18T16:25:30.265Z,1.55
2022-10-18T16:27:31.716Z,1.58
2022-10-18T16:29:33.405Z,1.75
2022-10-18T16:31:34.987Z,1.45
2022-10-18T16:33:36.965Z,2.15
2022-10-18T16:35:38.465Z,1.42
2022-10-18T16:37:39.986Z,1.98
2022-10-18T16:39:41.413Z,1.98
2022-10-18T16:41:43.352Z,1.67
2022-10-18T16:43:46.835Z,2.20
2022-10-18T16:45:49.161Z,1.77
2022-10-18T16:47:50.634Z,2.08
2022-10-18T16:49:52.381Z,1.80
2022-10-18T16:51:54.799Z,1.45
2022-10-18T16:53:56.275Z,1.85
2022-10-18T16:56:03.210Z,1.35
2022-10-18T16:58:04.731Z,1.30
2022-10-18T17:00:07.001Z,1.75
2022-10-18T17:02:09.258Z,1.80
2022-10-18T17:04:10.694Z,1.80
2022-10-18T17:06:16.690Z,1.92
2022-10-18T17:08:25.048Z,2.15
2022-10-18T17:10:27.632Z,2.30
2022-10-18T17:12:29.254Z,1.60
2022-10-18T17:14:33.216Z,1.98
2022-10-18T17:16:36.810Z,2.35
2022-10-18T17:18:38.259Z,2.35
2022-10-18T17:20:40.811Z,2.95
2022-10-18T17:22:42.278Z,2.08
2022-10-18T17:24:43.755Z,2.42
2022-10-18T17:26:45.219Z,2.05
2022-10-18T17:28:49.875Z,2.35
2022-10-18T17:30:51.731Z,2.58
2022-10-18T17:32:55.333Z,2.30
2022-10-18T17:34:56.869Z,2.40
2022-10-18T17:36:58.534Z,2.00
2022-10-18T17:39:00.136Z,2.90
2022-10-18T17:41:09.597Z,3.45
2022-10-18T17:43:13.379Z,2.50
2022-10-18T17:45:14.862Z,2.38
2022-10-18T17:47:16.304Z,2.13
2022-10-18T17:49:18.293Z,2.65
2022-10-18T17:51:19.767Z,2.42
2022-10-18T17:53:25.112Z,1.75
2022-10-18T17:55:27.540Z,1.80
2022-10-18T17:57:28.974Z,2.38
2022-10-18T17:59:30.453Z,1.77
2022-10-18T18:01:32.038Z,1.85
2022-10-18T18:03:35.711Z,2.38
2022-10-18T18:05:37.195Z,2.38
2022-10-18T18:07:38.669Z,3.17
2022-10-18T18:09:40.282Z,2.70
2022-10-18T18:11:43.764Z,2.08
2022-10-18T18:13:45.230Z,2.28
2022-10-18T18:15:46.662Z,2.38
2022-10-18T18:17:58.431Z,2.28
2022-10-18T18:20:00.213Z,2.40
2022-10-18T18:22:01.999Z,1.83
2022-10-18T18:24:03.790Z,2.03
2022-10-18T18:26:05.669Z,2.58
2022-10-18T18:28:07.734Z,2.45
2022-10-18T18:30:09.975Z,1.83
2022-10-18T18:32:11.616Z,1.55
2022-10-18T18:34:13.336Z,1.70
2022-10-18T18:36:14.845Z,2.38
2022-10-18T18:38:16.278Z,1.55
2022-10-18T18:40:18.015Z,1.30
2022-10-18T18:42:19.459Z,1.70
2022-10-18T18:44:22.010Z,1.95
2022-10-18T18:46:25.057Z,1.48
2022-10-18T18:48:28.235Z,1.88
2022-10-18T18:50:31.808Z,2.03
2022-10-18T18:52:33.508Z,1.80
2022-10-18T18:54:35.137Z,1.30
2022-10-18T18:56:37.247Z,1.50
2022-10-18T18:58:39.784Z,1.65
2022-10-18T19:00:44.321Z,1.67
2022-10-18T19:02:46.085Z,1.25
2022-10-18T19:04:47.545Z,1.15
2022-10-18T19:06:49.003Z,1.10
2022-10-18T19:08:54.041Z,1.30
2022-10-18T19:10:55.488Z,1.40
2022-10-18T19:12:57.100Z,1.42
2022-10-18T19:14:58.550Z,1.17
2022-10-18T19:17:01.395Z,1.30
2022-10-18T19:19:02.867Z,1.30
2022-10-18T19:21:04.441Z,0.93
2022-10-18T19:23:05.916Z,1.40
2022-10-18T19:25:08.207Z,1.38
2022-10-18T19:27:12.296Z,1.30
2022-10-18T19:29:18.096Z,1.30
2022-10-18T19:31:19.643Z,1.58
2022-10-18T19:33:35.547Z,1.60
2022-10-18T19:35:43.760Z,0.73
2022-10-18T19:37:45.227Z,0.90
2022-10-18T19:39:46.749Z,1.23
2022-10-18T19:41:50.830Z,1.10
2022-10-18T19:43:52.415Z,1.33
2022-10-18T19:45:53.985Z,1.30
2022-10-18T19:47:55.428Z,1.17
2022-10-18T19:49:56.908Z,1.60
2022-10-18T19:51:58.457Z,1.23
2022-10-18T19:53:59.934Z,0.95
2022-10-18T19:56:03.505Z,1.35
2022-10-18T19:58:04.920Z,1.42
2022-10-18T20:00:09.808Z,1.23
2022-10-18T20:02:15.055Z,1.75
2022-10-18T20:04:17.464Z,1.80
2022-10-18T20:06:19.650Z,1.45
2022-10-18T20:08:21.332Z,1.42
2022-10-18T20:10:22.785Z,0.90
2022-10-18T20:12:24.786Z,0.90
2022-10-18T20:14:26.288Z,1.33
2022-10-18T20:16:30.992Z,1.13
2022-10-18T20:18:32.685Z,1.48
2022-10-18T20:20:37.244Z,1.27
2022-10-18T20:22:38.694Z,1.55
2022-10-18T20:24:40.143Z,1.10
2022-10-18T20:26:43.369Z,1.90
2022-10-18T20:28:46.126Z,0.93
2022-10-18T20:30:47.596Z,1.60
2022-10-18T20:32:51.658Z,1.05
2022-10-18T20:34:53.140Z,1.73
2022-10-18T20:36:55.420Z,0.98
2022-10-18T20:38:57.531Z,0.80
2022-10-18T20:41:16.357Z,0.65
2022-10-18T20:43:18.087Z,0.85
2022-10-18T20:45:19.502Z,1.00
2022-10-18T20:47:20.963Z,0.77
2022-10-18T20:49:22.403Z,1.25
2022-10-18T20:51:24.099Z,0.50
2022-10-18T20:53:25.552Z,0.88
2022-10-18T20:55:28.984Z,1.40
2022-10-18T20:57:34.158Z,0.43
2022-10-18T20:59:37.936Z,0.60
2022-10-18T21:01:39.789Z,1.27
2022-10-18T21:03:43.330Z,0.80
2022-10-18T21:05:44.761Z,0.80
2022-10-18T21:07:46.208Z,0.90
2022-10-18T21:09:47.662Z,0.93
2022-10-18T21:11:51.022Z,0.90
2022-10-18T21:14:02.050Z,1.05
2022-10-18T21:16:04.985Z,1.27
2022-10-18T21:18:06.436Z,0.88
2022-10-18T21:20:09.084Z,1.27
2022-10-18T21:22:10.526Z,1.02
2022-10-18T21:24:13.236Z,1.40
2022-10-18T21:26:16.604Z,1.05
2022-10-18T21:28:18.070Z,0.80
2022-10-18T21:30:19.653Z,1.08
2022-10-18T21:32:21.074Z,1.13
2022-10-18T21:34:22.643Z,1.30
2022-10-18T21:36:25.015Z,1.20
2022-10-18T21:38:26.463Z,1.00
2022-10-18T21:40:27.888Z,1.23
2022-10-18T21:42:29.303Z,1.80
2022-10-18T21:44:30.759Z,1.00
2022-10-18T21:46:32.521Z,1.17
2022-10-18T21:48:34.250Z,1.20
2022-10-18T21:50:35.728Z,1.40
2022-10-18T21:52:38.083Z,1.65
2022-10-18T21:54:39.539Z,1.20
2022-10-18T21:56:41.761Z,0.90
2022-10-18T21:58:44.044Z,1.02
2022-10-18T22:00:45.549Z,1.23
2022-10-18T22:02:47.115Z,1.35
2022-10-18T22:04:49.667Z,0.80
2022-10-18T22:06:51.950Z,0.95
2022-10-18T22:08:56.119Z,1.38
2022-10-18T22:10:58.019Z,1.50
2022-10-18T22:12:59.721Z,0.93
2022-10-18T22:15:02.651Z,1.55
2022-10-18T22:17:04.385Z,1.23
2022-10-18T22:19:07.231Z,1.70
2022-10-18T22:21:10.744Z,16.35
2022-10-18T22:23:12.947Z,6.30
2022-10-18T22:25:14.436Z,1.48
2022-10-18T22:27:15.863Z,2.03
2022-10-18T22:29:19.847Z,2.53
2022-10-18T22:31:24.172Z,2.45
2022-10-18T22:33:25.922Z,1.52
2022-10-18T22:35:27.415Z,2.58
2022-10-18T22:37:28.843Z,3.10
2022-10-18T22:39:30.323Z,3.28
2022-10-18T22:41:32.523Z,2.83
2022-10-18T22:43:34.922Z,2.42
2022-10-18T22:45:36.361Z,2.15
2022-10-18T22:47:37.966Z,1.80
2022-10-18T22:49:39.496Z,1.80
2022-10-18T22:51:41.018Z,1.23
2022-10-18T22:53:42.527Z,1.10
2022-10-18T22:55:43.997Z,1.17
2022-10-18T22:57:45.487Z,1.50
2022-10-18T22:59:46.925Z,1.40
2022-10-18T23:01:48.386Z,1.50
2022-10-18T23:03:54.666Z,1.88
2022-10-18T23:05:56.511Z,4.28
2022-10-18T23:07:57.920Z,7.40
2022-10-18T23:09:59.389Z,7.22
2022-10-18T23:12:00.826Z,4.93
2022-10-18T23:14:04.165Z,2.58
2022-10-18T23:16:06.002Z,2.00
2022-10-18T23:18:07.546Z,1.90
2022-10-18T23:20:09.337Z,1.80
2022-10-18T23:22:10.784Z,1.73
2022-10-18T23:24:12.302Z,1.25
2022-10-18T23:26:15.961Z,1.20
2022-10-18T23:28:17.388Z,1.30
2022-10-18T23:30:19.036Z,1.52
2022-10-18T23:32:20.493Z,1.27
2022-10-18T23:34:22.047Z,1.10
2022-10-18T23:36:24.109Z,1.60
2022-10-18T23:38:25.563Z,1.30
2022-10-18T23:40:27.059Z,1.25
2022-10-18T23:42:28.522Z,1.40
2022-10-18T23:44:29.981Z,1.13
2022-10-18T23:46:31.464Z,1.20
2022-10-18T23:48:34.269Z,1.10
2022-10-18T23:50:35.762Z,1.67
2022-10-18T23:52:37.294Z,1.63
2022-10-18T23:54:38.793Z,1.20
2022-10-18T23:56:40.279Z,1.30
2022-10-18T23:58:43.164Z,1.35
